Time;durP1;ratioP1;P1;durP2;ratioP2;P2;SDS_P1;SDS_P2;PMS_P1;PMS_P2;Temp;Humidity;BMP_temperature;BMP_pressure;BME280_temperature;BME280_humidity;BME280_pressure;Samples;Min_cycle;Max_cycle;Signal;HPM_P1;HPM_P2
2022/03/22 00:01:06;;;;;;;;;;;;;;;2.56;42.93;96588.03;5073261;28;1017;-49
2022/03/22 00:03:32;;;;;;;;;;;;;;;2.60;41.57;96589.59;5073318;28;1023;-49
2022/03/22 00:05:58;;;;;;;;;;;;;;;2.66;41.78;96585.81;5073373;28;1040;-49
2022/03/22 00:08:24;;;;;;;;;;;;;;;2.72;40.77;96575.75;5073047;28;1047;-49
2022/03/22 00:10:50;;;;;;;;;;;;;;;2.72;41.29;96582.84;5073128;28;1995;-49
2022/03/22 00:13:16;;;;;;;;;;;;;;;2.66;41.06;96577.88;5073130;28;1087;-49
2022/03/22 00:15:42;;;;;;;;;;;;;;;2.68;41.44;96578.66;5072371;28;1032;-49
2022/03/22 00:18:08;;;;;;;;;;;;;;;2.72;40.83;96577.56;5073012;28;1009;-49
2022/03/22 00:20:35;;;;;;;;;;;;;;;2.61;41.09;96577.25;5075819;28;1064;-49
2022/03/22 00:23:01;;;;;;;;;;;;;;;2.51;41.33;96579.50;5077009;28;1031;-49
2022/03/22 00:25:27;;;;;;;;;;;;;;;2.45;41.53;96579.81;5077111;28;1132;-49
2022/03/22 00:27:57;;;;;;;;;;;;;;;2.42;41.72;96575.53;5077248;28;1008;-49
2022/03/22 00:30:31;;;;;;;;;;;;;;;2.52;41.07;96579.44;5077367;28;1910;-49
2022/03/22 00:32:58;;;;;;;;;;;;;;;2.65;41.21;96576.16;5077166;28;1064;-49
2022/03/22 00:35:25;;;;;;;;;;;;;;;2.69;40.22;96570.66;5076992;28;1021;-49
2022/03/22 00:37:53;;;;;;;;;;;;;;;2.73;40.50;96576.63;5077108;28;972;-49
2022/03/22 00:40:21;;;;;;;;;;;;;;;2.77;40.22;96572.91;5076869;28;984;-49
2022/03/22 00:42:47;;;;;;;;;;;;;;;2.89;39.92;96571.41;5076746;28;1099;-49
2022/03/22 00:45:16;;;;;;;;;;;;;;;2.84;40.22;96573.44;5076677;28;1255;-49
2022/03/22 00:47:43;;;;;;;;;;;;;;;2.71;40.18;96568.78;5077086;28;1060;-49
2022/03/22 00:50:09;;;;;;;;;;;;;;;2.83;39.45;96569.94;5076747;28;1910;-49
2022/03/22 00:52:35;;;;;;;;;;;;;;;2.83;39.58;96563.81;5076641;28;1161;-49
2022/03/22 00:55:05;;;;;;;;;;;;;;;2.78;39.94;96563.19;5076440;28;1013;-49
2022/03/22 00:57:32;;;;;;;;;;;;;;;2.80;39.64;96559.53;5076631;28;1243;-49
2022/03/22 01:00:01;;;;;;;;;;;;;;;2.83;39.27;96566.47;5076484;28;996;-49
2022/03/22 01:02:27;;;;;;;;;;;;;;;2.86;39.36;96559.19;5076643;28;1036;-49
2022/03/22 01:04:55;;;;;;;;;;;;;;;2.84;39.54;96558.44;5076305;28;1047;-49
2022/03/22 01:07:22;;;;;;;;;;;;;;;2.87;39.21;96555.63;5075874;28;1052;-49
2022/03/22 01:09:48;;;;;;;;;;;;;;;2.99;39.09;96545.38;5076182;28;1914;-49
2022/03/22 01:12:15;;;;;;;;;;;;;;;2.92;38.96;96555.38;5076381;28;1027;-49
2022/03/22 01:14:42;;;;;;;;;;;;;;;2.99;38.52;96554.13;5076241;28;976;-49
2022/03/22 01:17:08;;;;;;;;;;;;;;;3.07;38.57;96548.44;5076184;28;984;-49
2022/03/22 01:19:35;;;;;;;;;;;;;;;3.09;38.64;96544.81;5076123;28;996;-49
2022/03/22 01:22:02;;;;;;;;;;;;;;;3.00;38.38;96547.06;5075970;28;968;-49
2022/03/22 01:24:28;;;;;;;;;;;;;;;2.96;38.70;96541.09;5075923;28;1012;-49
2022/03/22 01:26:55;;;;;;;;;;;;;;;3.07;38.29;96538.75;5076182;28;967;-49
2022/03/22 01:29:21;;;;;;;;;;;;;;;3.09;38.35;96536.88;5075941;28;1981;-50
2022/03/22 01:31:48;;;;;;;;;;;;;;;3.06;38.21;96539.66;5074673;28;1059;-49
2022/03/22 01:34:15;;;;;;;;;;;;;;;3.16;38.20;96539.19;5075851;28;1047;-49
2022/03/22 01:36:41;;;;;;;;;;;;;;;3.24;37.65;96537.81;5076239;28;969;-49
2022/03/22 01:39:07;;;;;;;;;;;;;;;3.30;37.87;96526.94;5075568;28;1020;-49
2022/03/22 01:41:34;;;;;;;;;;;;;;;3.39;37.99;96530.00;5075961;28;975;-49
2022/03/22 01:44:01;;;;;;;;;;;;;;;3.40;37.63;96531.72;5075666;28;1051;-49
2022/03/22 01:46:27;;;;;;;;;;;;;;;3.08;38.63;96527.22;5074304;28;1105;-49
2022/03/22 01:48:54;;;;;;;;;;;;;;;2.94;38.63;96527.13;5075739;28;1035;-49
2022/03/22 01:51:22;;;;;;;;;;;;;;;2.90;39.14;96528.19;5075669;28;1906;-49
2022/03/22 01:53:49;;;;;;;;;;;;;;;2.99;38.20;96529.50;5075504;28;1015;-49
2022/03/22 01:56:15;;;;;;;;;;;;;;;3.13;38.15;96529.66;5075537;28;1059;-49
2022/03/22 01:58:42;;;;;;;;;;;;;;;2.80;40.46;96535.75;5075661;28;1031;-49
2022/03/22 02:06:39;;;;;;;;;;;;;;;1.95;42.25;96510.09;5075312;28;1011;-49
2022/03/22 02:09:05;;;;;;;;;;;;;;;2.10;41.65;96519.06;5075251;28;1898;-49
2022/03/22 02:11:31;;;;;;;;;;;;;;;2.26;41.16;96516.53;5075149;28;981;-50
2022/03/22 02:13:57;;;;;;;;;;;;;;;2.53;40.58;96520.38;5074959;28;1068;-49
2022/03/22 02:16:24;;;;;;;;;;;;;;;2.57;40.50;96513.16;5075024;28;1869;-49
2022/03/22 02:18:53;;;;;;;;;;;;;;;2.66;40.12;96515.34;5075277;28;1051;-49
2022/03/22 02:21:20;;;;;;;;;;;;;;;2.87;39.66;96505.44;5074737;28;1099;-49
2022/03/22 02:23:49;;;;;;;;;;;;;;;2.90;39.42;96502.66;5075041;28;1032;-49
2022/03/22 02:26:16;;;;;;;;;;;;;;;2.83;40.01;96501.25;5074899;28;1003;-49
2022/03/22 02:28:43;;;;;;;;;;;;;;;2.90;39.30;96507.06;5074940;28;988;-49
2022/03/22 02:31:10;;;;;;;;;;;;;;;3.06;38.80;96515.03;5074571;28;1914;-49
2022/03/22 02:33:39;;;;;;;;;;;;;;;3.09;39.07;96505.16;5075165;28;1016;-49
2022/03/22 02:36:06;;;;;;;;;;;;;;;3.14;38.76;96494.34;5074974;28;969;-49
2022/03/22 02:38:31;;;;;;;;;;;;;;;3.13;38.65;96492.63;5074836;28;1032;-49
2022/03/22 02:40:58;;;;;;;;;;;;;;;3.13;38.69;96492.63;5074380;28;964;-50
2022/03/22 02:43:24;;;;;;;;;;;;;;;3.19;38.52;96496.72;5074145;28;1230;-49
2022/03/22 02:45:50;;;;;;;;;;;;;;;3.23;38.64;96496.47;5074203;28;1155;-49
2022/03/22 02:48:18;;;;;;;;;;;;;;;3.07;38.52;96504.41;5073341;28;1033;-50
2022/03/22 02:50:44;;;;;;;;;;;;;;;3.25;38.24;96501.69;5073991;28;1905;-49
2022/03/22 02:53:10;;;;;;;;;;;;;;;3.36;38.53;96496.66;5074537;28;1005;-49
2022/03/22 02:55:37;;;;;;;;;;;;;;;3.21;38.57;96501.00;5073157;28;1032;-50
2022/03/22 02:58:03;;;;;;;;;;;;;;;3.35;37.96;96497.59;5074517;28;1655;-49
2022/03/22 03:00:30;;;;;;;;;;;;;;;3.35;38.36;96494.09;5072921;28;1021;-49
2022/03/22 03:02:56;;;;;;;;;;;;;;;3.29;38.32;96509.34;5073200;28;1475;-50
2022/03/22 03:05:23;;;;;;;;;;;;;;;2.94;39.89;96516.56;5073913;28;2606;-50
2022/03/22 03:07:50;;;;;;;;;;;;;;;2.61;40.81;96511.22;5072898;28;1114;-50
2022/03/22 03:10:17;;;;;;;;;;;;;;;2.62;40.56;96508.50;5074095;28;1914;-49
2022/03/22 03:12:43;;;;;;;;;;;;;;;2.78;39.85;96507.72;5072489;28;1103;-50
2022/03/22 03:15:11;;;;;;;;;;;;;;;3.02;39.04;96513.50;5074227;28;1865;-50
2022/03/22 03:17:38;;;;;;;;;;;;;;;3.20;38.50;96514.28;5072562;28;1096;-50
2022/03/22 03:20:06;;;;;;;;;;;;;;;3.35;37.81;96516.09;5074066;28;1027;-49
2022/03/22 03:22:32;;;;;;;;;;;;;;;3.49;38.22;96513.56;5073775;28;1107;-49
2022/03/22 03:24:59;;;;;;;;;;;;;;;3.56;37.63;96515.88;5072505;28;1016;-49
2022/03/22 03:27:25;;;;;;;;;;;;;;;3.57;37.77;96513.16;5073463;28;936;-49
2022/03/22 03:29:51;;;;;;;;;;;;;;;3.52;37.75;96513.38;5073795;28;1958;-49
2022/03/22 03:32:17;;;;;;;;;;;;;;;3.42;37.89;96519.28;5073458;28;1115;-50
2022/03/22 03:34:43;;;;;;;;;;;;;;;3.39;38.34;96512.34;5072385;28;1008;-49
2022/03/22 03:37:10;;;;;;;;;;;;;;;3.41;38.25;96514.91;5072243;28;1123;-49
2022/03/22 03:39:38;;;;;;;;;;;;;;;3.41;38.52;96514.91;5073667;28;961;-49
2022/03/22 03:42:06;;;;;;;;;;;;;;;3.45;37.83;96516.44;5073065;28;1048;-49
2022/03/22 03:47:20;;;;;;;;;;;;;;;3.54;38.00;96523.88;5073501;28;999;-49
2022/03/22 03:49:47;;;;;;;;;;;;;;;3.49;38.10;96517.97;5073287;28;1910;-49
2022/03/22 03:52:15;;;;;;;;;;;;;;;3.54;37.72;96523.03;5073235;28;1194;-49
2022/03/22 03:54:41;;;;;;;;;;;;;;;3.59;38.29;96532.44;5072541;28;1055;-49
2022/03/22 03:57:08;;;;;;;;;;;;;;;3.65;37.91;96531.22;5073354;28;1024;-49
2022/03/22 03:59:35;;;;;;;;;;;;;;;3.57;38.26;96529.00;5073549;28;1051;-49
2022/03/22 04:02:02;;;;;;;;;;;;;;;3.36;38.40;96527.53;5073331;28;1503;-49
2022/03/22 04:04:28;;;;;;;;;;;;;;;3.30;38.60;96537.50;5073265;28;1004;-49
2022/03/22 04:06:54;;;;;;;;;;;;;;;3.41;38.31;96533.44;5072980;28;1081;-49
2022/03/22 04:09:20;;;;;;;;;;;;;;;3.35;38.38;96536.41;5073111;28;2370;-49
2022/03/22 04:11:46;;;;;;;;;;;;;;;3.47;37.99;96538.38;5073049;28;1020;-49
2022/03/22 04:14:12;;;;;;;;;;;;;;;3.41;38.47;96528.13;5073388;28;991;-49
2022/03/22 04:16:39;;;;;;;;;;;;;;;3.36;38.27;96546.03;5073014;28;1029;-49
2022/03/22 04:19:08;;;;;;;;;;;;;;;3.33;38.81;96539.97;5072980;28;1982;-48
2022/03/22 04:21:38;;;;;;;;;;;;;;;3.42;38.14;96543.94;5073073;28;1015;-48
2022/03/22 04:24:08;;;;;;;;;;;;;;;3.51;37.75;96542.59;5072954;28;1083;-49
2022/03/22 04:26:35;;;;;;;;;;;;;;;3.55;37.74;96549.41;5073256;28;1011;-49
2022/03/22 04:34:32;;;;;;;;;;;;;;;3.31;38.40;96548.94;5073237;28;975;-49
2022/03/22 04:37:01;;;;;;;;;;;;;;;2.99;40.24;96545.38;5073009;28;1106;-48
2022/03/22 04:39:29;;;;;;;;;;;;;;;2.57;40.72;96544.00;5073109;28;1004;-48
2022/03/22 04:41:55;;;;;;;;;;;;;;;2.64;41.62;96543.63;5072432;28;933;-49
2022/03/22 04:44:21;;;;;;;;;;;;;;;2.77;40.14;96542.97;5072881;28;1017;-49
2022/03/22 04:46:48;;;;;;;;;;;;;;;2.88;39.71;96533.59;5072644;28;1045;-49
2022/03/22 04:49:14;;;;;;;;;;;;;;;2.67;42.20;96526.75;5072493;28;1906;-49
2022/03/22 04:57:09;;;;;;;;;;;;;;;2.22;42.13;96520.22;5072664;28;1084;-48
2022/03/22 04:59:35;;;;;;;;;;;;;;;2.67;40.98;96510.91;5072836;28;1007;-49
2022/03/22 05:02:01;;;;;;;;;;;;;;;2.65;42.95;96528.63;5073007;28;995;-49
2022/03/22 05:04:28;;;;;;;;;;;;;;;2.60;40.22;96525.34;5072632;28;1027;-48
2022/03/22 05:06:54;;;;;;;;;;;;;;;2.97;40.04;96516.38;5075620;28;942;-49
2022/03/22 05:09:20;;;;;;;;;;;;;;;3.26;40.17;96522.75;5076226;28;1910;-49
2022/03/22 05:11:46;;;;;;;;;;;;;;;3.38;40.31;96513.31;5076073;28;1055;-48
2022/03/22 05:14:12;;;;;;;;;;;;;;;3.66;38.85;96515.28;5076123;28;1011;-48
2022/03/22 05:16:39;;;;;;;;;;;;;;;4.12;38.31;96522.41;5076255;28;1068;-49
2022/03/22 05:19:05;;;;;;;;;;;;;;;4.50;37.94;96514.88;5075997;28;999;-49
2022/03/22 05:21:31;;;;;;;;;;;;;;;4.78;37.52;96520.31;5076304;28;1016;-49
2022/03/22 05:23:58;;;;;;;;;;;;;;;4.63;37.50;96517.66;5075913;28;1063;-49
2022/03/22 05:26:27;;;;;;;;;;;;;;;4.89;37.06;96517.88;5076123;28;969;-49
2022/03/22 05:28:53;;;;;;;;;;;;;;;5.11;37.88;96512.13;5075978;28;1028;-49
2022/03/22 05:31:21;;;;;;;;;;;;;;;5.32;37.23;96520.56;5076290;28;1926;-48
2022/03/22 05:33:48;;;;;;;;;;;;;;;5.42;35.11;96512.88;5075592;28;1311;-49
2022/03/22 05:36:14;;;;;;;;;;;;;;;5.79;35.61;96502.59;5076030;28;1011;-49
2022/03/22 05:38:40;;;;;;;;;;;;;;;6.15;35.66;96515.31;5075962;28;1016;-50
2022/03/22 05:41:08;;;;;;;;;;;;;;;6.45;34.72;96509.78;5075682;28;956;-49
2022/03/22 05:43:35;;;;;;;;;;;;;;;6.71;33.61;96508.97;5074078;28;1021;-49
2022/03/22 05:46:03;;;;;;;;;;;;;;;6.91;33.40;96510.28;5075567;28;1188;-49
2022/03/22 05:48:29;;;;;;;;;;;;;;;6.88;34.37;96516.63;5075549;28;968;-49
2022/03/22 05:50:56;;;;;;;;;;;;;;;6.59;35.74;96523.94;5075548;28;1906;-49
2022/03/22 05:53:22;;;;;;;;;;;;;;;6.52;36.03;96512.84;5075499;28;957;-49
2022/03/22 05:55:48;;;;;;;;;;;;;;;6.71;35.92;96520.44;5074198;28;992;-49
2022/03/22 05:58:14;;;;;;;;;;;;;;;7.19;35.81;96517.19;5075318;28;1094;-49
2022/03/22 06:00:40;;;;;;;;;;;;;;;7.87;33.03;96507.91;5075482;28;1087;-49
2022/03/22 06:03:06;;;;;;;;;;;;;;;8.43;31.94;96503.91;5075190;28;1016;-49
2022/03/22 06:05:32;;;;;;;;;;;;;;;8.65;32.37;96512.00;5075222;28;1008;-49
2022/03/22 06:07:59;;;;;;;;;;;;;;;8.95;31.45;96510.59;5075243;28;1087;-49
2022/03/22 06:10:27;;;;;;;;;;;;;;;8.33;34.27;96517.03;5075456;28;1926;-49
2022/03/22 06:12:54;;;;;;;;;;;;;;;8.47;34.67;96516.88;5074854;28;921;-49
2022/03/22 06:15:27;;;;;;;;;;;;;;;9.02;32.89;96519.84;5074948;28;1016;-49
2022/03/22 06:17:56;;;;;;;;;;;;;;;10.12;31.66;96515.59;5074134;28;1048;-49
2022/03/22 06:20:24;;;;;;;;;;;;;;;11.14;28.63;96517.88;5075008;28;1025;-50
2022/03/22 06:22:50;;;;;;;;;;;;;;;13.51;25.64;96514.50;5074976;28;1052;-50
2022/03/22 06:25:17;;;;;;;;;;;;;;;16.01;21.87;96515.59;5074753;28;1068;-48
2022/03/22 06:27:44;;;;;;;;;;;;;;;18.50;19.98;96511.72;5074924;28;1080;-48
2022/03/22 06:30:10;;;;;;;;;;;;;;;20.30;18.70;96522.91;5074806;28;1901;-49
2022/03/22 06:32:45;;;;;;;;;;;;;;;21.72;18.27;96516.03;5074829;28;960;-52
2022/03/22 06:35:15;;;;;;;;;;;;;;;22.19;17.61;96512.59;5074619;28;1079;-48
2022/03/22 06:37:41;;;;;;;;;;;;;;;22.85;16.68;96513.13;5074651;28;1008;-48
2022/03/22 06:40:08;;;;;;;;;;;;;;;22.04;16.48;96517.31;5074633;28;985;-48
2022/03/22 06:42:34;;;;;;;;;;;;;;;21.04;17.50;96519.19;5074371;28;1071;-48
2022/03/22 06:45:00;;;;;;;;;;;;;;;19.98;18.35;96511.38;5074257;28;1133;-49
2022/03/22 06:47:27;;;;;;;;;;;;;;;20.01;18.69;96513.72;5074576;28;1008;-48
2022/03/22 06:49:54;;;;;;;;;;;;;;;19.00;18.38;96501.41;5074212;28;1910;-48
2022/03/22 06:52:20;;;;;;;;;;;;;;;18.59;18.29;96496.22;5074266;28;1290;-48
2022/03/22 06:54:46;;;;;;;;;;;;;;;20.28;17.08;96504.06;5074287;28;957;-49
2022/03/22 06:57:13;;;;;;;;;;;;;;;21.49;16.73;96499.97;5074312;28;1103;-49
2022/03/22 06:59:39;;;;;;;;;;;;;;;22.21;16.23;96506.94;5074134;28;1091;-49
2022/03/22 07:02:05;;;;;;;;;;;;;;;22.24;16.02;96501.09;5074200;28;984;-49
2022/03/22 07:04:31;;;;;;;;;;;;;;;22.33;15.58;96501.78;5074120;28;1135;-49
2022/03/22 07:06:57;;;;;;;;;;;;;;;24.26;14.05;96507.50;5073912;28;1051;-49
2022/03/22 07:09:23;;;;;;;;;;;;;;;25.64;13.34;96510.84;5074128;28;1987;-49
2022/03/22 07:11:50;;;;;;;;;;;;;;;26.88;13.08;96506.22;5073691;28;1055;-50
2022/03/22 07:14:22;;;;;;;;;;;;;;;27.28;12.50;96507.59;5074167;28;976;-49
2022/03/22 07:16:48;;;;;;;;;;;;;;;27.40;12.08;96510.38;5073732;28;1044;-50
2022/03/22 07:19:15;;;;;;;;;;;;;;;28.55;11.51;96511.78;5073883;28;1017;-50
2022/03/22 07:21:42;;;;;;;;;;;;;;;28.64;11.60;96508.66;5072457;28;945;-50
2022/03/22 07:24:08;;;;;;;;;;;;;;;29.30;10.71;96504.47;5073953;28;1023;-51
2022/03/22 07:26:35;;;;;;;;;;;;;;;29.78;10.55;96508.69;5073833;28;953;-50
2022/03/22 07:29:01;;;;;;;;;;;;;;;29.80;10.72;96496.53;5072710;28;958;-51
2022/03/22 07:31:27;;;;;;;;;;;;;;;29.87;10.24;96484.25;5073371;28;1914;-51
2022/03/22 07:33:53;;;;;;;;;;;;;;;29.37;10.74;96499.66;5072348;28;1087;-51
2022/03/22 07:36:19;;;;;;;;;;;;;;;30.10;10.61;96498.97;5073411;28;973;-51
2022/03/22 07:38:45;;;;;;;;;;;;;;;30.50;9.94;96498.72;5073749;28;962;-51
2022/03/22 07:41:12;;;;;;;;;;;;;;;29.90;10.26;96500.31;5073403;28;1107;-51
2022/03/22 07:43:38;;;;;;;;;;;;;;;29.07;10.13;96490.81;5073441;28;1043;-51
2022/03/22 07:46:04;;;;;;;;;;;;;;;29.49;10.80;96499.59;5073181;28;1267;-51
2022/03/22 07:48:30;;;;;;;;;;;;;;;30.00;10.41;96498.81;5073498;28;1032;-51
2022/03/22 07:53:42;;;;;;;;;;;;;;;30.61;10.51;96504.41;5073645;28;1024;-51
2022/03/22 07:56:08;;;;;;;;;;;;;;;31.54;10.04;96501.63;5072170;28;1440;-51
2022/03/22 07:58:34;;;;;;;;;;;;;;;30.54;10.11;96505.44;5072156;28;1016;-51
2022/03/22 08:01:01;;;;;;;;;;;;;;;29.02;10.68;96486.84;5055604;28;1448;-52
2022/03/22 08:03:27;;;;;;;;;;;;;;;30.14;11.01;96487.16;5073109;28;1270;-52
2022/03/22 08:05:53;;;;;;;;;;;;;;;31.03;10.20;96487.25;5073197;28;1652;-50
2022/03/22 08:08:20;;;;;;;;;;;;;;;31.79;9.80;96489.13;5073261;28;1024;-50
2022/03/22 08:10:46;;;;;;;;;;;;;;;31.05;10.01;96487.84;5072874;28;1995;-50
2022/03/22 08:13:12;;;;;;;;;;;;;;;31.14;10.52;96498.16;5072928;28;1107;-50
2022/03/22 08:15:39;;;;;;;;;;;;;;;30.25;11.37;96481.81;5072954;28;1037;-50
2022/03/22 08:18:05;;;;;;;;;;;;;;;29.17;11.54;96477.25;5072897;28;1020;-50
2022/03/22 08:20:32;;;;;;;;;;;;;;;27.03;13.06;96477.50;5072963;28;1037;-49
2022/03/22 08:22:59;;;;;;;;;;;;;;;24.91;14.63;96471.13;5073137;28;941;-50
2022/03/22 08:25:32;;;;;;;;;;;;;;;23.34;15.50;96466.44;5073296;28;972;-51
2022/03/22 08:27:59;;;;;;;;;;;;;;;21.85;16.83;96461.69;5072909;28;1028;-50
2022/03/22 08:30:26;;;;;;;;;;;;;;;20.86;17.66;96454.38;5073368;28;1910;-50
2022/03/22 08:32:53;;;;;;;;;;;;;;;20.48;18.64;96465.44;5072575;28;1024;-50
2022/03/22 08:35:20;;;;;;;;;;;;;;;20.73;18.41;96455.09;5071669;28;1479;-49
2022/03/22 08:37:46;;;;;;;;;;;;;;;20.66;18.73;96457.75;5072777;28;1110;-49
2022/03/22 08:40:16;;;;;;;;;;;;;;;21.11;18.79;96464.88;5073357;28;969;-49
2022/03/22 08:42:45;;;;;;;;;;;;;;;21.10;18.38;96463.19;5076620;28;1043;-49
2022/03/22 08:45:12;;;;;;;;;;;;;;;21.15;18.21;96464.28;5076623;28;1188;-49
2022/03/22 08:47:40;;;;;;;;;;;;;;;20.28;18.85;96457.91;5076836;28;941;-50
2022/03/22 08:50:11;;;;;;;;;;;;;;;19.86;20.11;96458.59;5076607;28;1918;-50
2022/03/22 08:52:38;;;;;;;;;;;;;;;17.94;21.12;96450.34;5076467;28;1150;-50
2022/03/22 08:55:05;;;;;;;;;;;;;;;15.83;23.32;96437.47;5076548;28;1007;-50
2022/03/22 08:57:31;;;;;;;;;;;;;;;14.84;25.00;96447.63;5076376;28;1028;-50
2022/03/22 08:59:58;;;;;;;;;;;;;;;14.48;25.02;96449.47;5076513;28;972;-50
2022/03/22 09:02:24;;;;;;;;;;;;;;;14.20;25.93;96437.94;5058784;28;1425;-50
2022/03/22 09:07:36;;;;;;;;;;;;;;;15.33;24.66;96428.28;5076372;28;1043;-49
2022/03/22 09:10:02;;;;;;;;;;;;;;;16.17;24.17;96426.63;5075024;28;2009;-49
2022/03/22 09:12:28;;;;;;;;;;;;;;;15.93;23.62;96426.56;5075992;28;1025;-48
2022/03/22 09:14:55;;;;;;;;;;;;;;;14.81;24.63;96412.09;5074987;28;1012;-52
2022/03/22 09:17:21;;;;;;;;;;;;;;;14.16;25.60;96415.03;5076221;28;961;-49
2022/03/22 09:19:47;;;;;;;;;;;;;;;13.95;26.13;96405.38;5076324;28;1028;-48
2022/03/22 09:22:14;;;;;;;;;;;;;;;13.86;25.98;96409.81;5076164;28;1011;-49
2022/03/22 09:24:40;;;;;;;;;;;;;;;13.41;26.87;96407.09;5076225;28;908;-50
2022/03/22 09:27:06;;;;;;;;;;;;;;;13.08;27.10;96412.81;5075674;28;1013;-50
2022/03/22 09:29:32;;;;;;;;;;;;;;;12.87;27.93;96406.81;5076211;28;1914;-50
2022/03/22 09:31:59;;;;;;;;;;;;;;;12.84;28.59;96407.97;5075894;28;1006;-50
2022/03/22 09:34:25;;;;;;;;;;;;;;;12.84;28.44;96407.09;5076217;28;969;-50
2022/03/22 09:36:52;;;;;;;;;;;;;;;12.60;29.50;96415.63;5075756;28;965;-50
2022/03/22 09:39:19;;;;;;;;;;;;;;;12.37;30.48;96415.91;5076399;28;972;-52
2022/03/22 09:41:49;;;;;;;;;;;;;;;12.31;30.08;96411.09;5075447;28;1017;-49
2022/03/22 09:44:19;;;;;;;;;;;;;;;12.50;29.56;96405.75;5074219;28;1694;-49
2022/03/22 09:49:51;;;;;;;;;;;;;;;12.70;30.08;96425.34;5075538;28;1906;-50
2022/03/22 09:52:18;;;;;;;;;;;;;;;12.53;30.30;96420.69;5074152;28;1150;-50
2022/03/22 09:54:44;;;;;;;;;;;;;;;13.41;29.00;96418.69;5075498;28;1102;-50
2022/03/22 09:57:10;;;;;;;;;;;;;;;13.46;29.15;96402.97;5075573;28;940;-50
2022/03/22 09:59:52;;;;;;;;;;;;;;;13.45;28.84;96403.97;5074445;28;1064;-52
2022/03/22 10:02:26;;;;;;;;;;;;;;;13.35;28.69;96400.47;5075786;28;1063;-50
2022/03/22 10:04:52;;;;;;;;;;;;;;;13.19;29.70;96397.53;5075261;28;1040;-50
2022/03/22 10:07:19;;;;;;;;;;;;;;;12.97;29.65;96391.50;5075322;28;1036;-50
2022/03/22 10:09:53;;;;;;;;;;;;;;;12.70;30.18;96393.13;5073950;28;1913;-50
2022/03/22 10:12:27;;;;;;;;;;;;;;;12.63;30.24;96394.69;5075022;28;1016;-50
2022/03/22 10:14:53;;;;;;;;;;;;;;;12.63;30.80;96394.69;5075078;28;1150;-50
2022/03/22 10:17:19;;;;;;;;;;;;;;;13.16;30.17;96377.19;5074923;28;1089;-50
2022/03/22 10:19:45;;;;;;;;;;;;;;;14.26;28.79;96386.19;5075161;28;1044;-50
2022/03/22 10:22:12;;;;;;;;;;;;;;;13.75;28.96;96375.06;5075247;28;1108;-51
2022/03/22 10:24:41;;;;;;;;;;;;;;;13.68;29.69;96379.38;5074994;28;1039;-50
2022/03/22 10:27:34;;;;;;;;;;;;;;;14.23;29.44;96381.97;5074942;28;1019;-50
2022/03/22 10:30:07;;;;;;;;;;;;;;;15.06;28.86;96377.25;5073582;28;2003;-50
2022/03/22 10:32:40;;;;;;;;;;;;;;;14.64;28.66;96377.00;5074824;28;944;-49
2022/03/22 10:35:14;;;;;;;;;;;;;;;14.64;29.01;96366.22;5074764;28;1067;-50
2022/03/22 10:37:45;;;;;;;;;;;;;;;14.96;28.55;96378.19;5074521;28;1075;-50
2022/03/22 10:40:23;;;;;;;;;;;;;;;15.58;27.98;96366.41;5074817;28;977;-51
2022/03/22 10:42:50;;;;;;;;;;;;;;;15.73;27.66;96367.50;5074533;28;1000;-48
2022/03/22 10:45:16;;;;;;;;;;;;;;;15.36;28.20;96357.03;5074705;28;956;-49
2022/03/22 10:47:43;;;;;;;;;;;;;;;15.30;28.34;96355.00;5074172;28;1247;-53
2022/03/22 10:50:09;;;;;;;;;;;;;;;15.21;28.35;96351.41;5074535;28;1906;-50
2022/03/22 10:52:46;;;;;;;;;;;;;;;15.20;29.20;96338.97;5074258;28;1138;-48
2022/03/22 10:55:18;;;;;;;;;;;;;;;15.13;29.04;96348.69;5074398;28;1036;-48
2022/03/22 10:57:44;;;;;;;;;;;;;;;15.18;29.05;96352.59;5074390;28;956;-49
2022/03/22 11:00:10;;;;;;;;;;;;;;;15.17;28.81;96356.25;5073744;28;1084;-49
2022/03/22 11:02:37;;;;;;;;;;;;;;;15.19;29.23;96342.66;5074392;28;1023;-49
2022/03/22 11:05:04;;;;;;;;;;;;;;;15.43;28.68;96336.53;5073690;28;1040;-50
2022/03/22 11:07:33;;;;;;;;;;;;;;;15.30;28.93;96326.19;5074083;28;1080;-50
2022/03/22 11:09:59;;;;;;;;;;;;;;;15.12;29.26;96338.91;5073768;28;1996;-49
2022/03/22 11:12:26;;;;;;;;;;;;;;;15.03;29.20;96325.41;5074047;28;961;-49
2022/03/22 11:14:54;;;;;;;;;;;;;;;14.93;29.08;96318.44;5073749;28;934;-49
2022/03/22 11:17:21;;;;;;;;;;;;;;;14.57;29.63;96316.72;5074050;28;1015;-48
2022/03/22 11:19:49;;;;;;;;;;;;;;;14.82;29.86;96315.00;5074007;28;1040;-49
2022/03/22 11:22:18;;;;;;;;;;;;;;;15.16;29.66;96310.66;5073904;28;1044;-49
2022/03/22 11:24:44;;;;;;;;;;;;;;;14.88;29.21;96310.00;5073792;28;1043;-49
2022/03/22 11:27:11;;;;;;;;;;;;;;;15.03;29.57;96301.16;5073755;28;1120;-50
2022/03/22 11:29:40;;;;;;;;;;;;;;;15.07;28.91;96288.22;5073421;28;2004;-50
2022/03/22 11:34:57;;;;;;;;;;;;;;;15.29;28.63;96267.94;5073599;28;1047;-48
2022/03/22 11:37:29;;;;;;;;;;;;;;;15.19;29.89;96267.22;5073812;28;976;-49
2022/03/22 11:42:50;;;;;;;;;;;;;;;14.37;30.08;96261.34;5073404;28;1025;-49
2022/03/22 11:45:17;;;;;;;;;;;;;;;14.12;30.07;96255.78;5073278;28;1089;-49
2022/03/22 11:47:43;;;;;;;;;;;;;;;13.94;29.70;96244.22;5073547;28;1085;-50
2022/03/22 11:50:16;;;;;;;;;;;;;;;14.19;30.18;96239.88;5073214;28;1910;-49
2022/03/22 11:52:42;;;;;;;;;;;;;;;14.30;30.13;96236.09;5073542;28;1158;-49
2022/03/22 11:55:08;;;;;;;;;;;;;;;14.10;30.30;96233.59;5073081;28;1025;-49
2022/03/22 11:57:42;;;;;;;;;;;;;;;13.86;30.47;96221.63;5073279;28;1032;-48
2022/03/22 12:00:08;;;;;;;;;;;;;;;13.52;30.66;96236.78;5073177;28;1071;-50
2022/03/22 12:02:37;;;;;;;;;;;;;;;13.39;31.30;96212.97;5073339;28;1068;-50
2022/03/22 12:05:04;;;;;;;;;;;;;;;13.55;31.20;96221.19;5073061;28;1032;-50
2022/03/22 12:07:37;;;;;;;;;;;;;;;13.73;30.50;96225.72;5073371;28;1012;-50
2022/03/22 12:10:08;;;;;;;;;;;;;;;13.81;30.77;96221.28;5072872;28;1910;-49
2022/03/22 12:12:36;;;;;;;;;;;;;;;14.05;29.94;96217.06;5073050;28;1099;-50
2022/03/22 12:15:03;;;;;;;;;;;;;;;14.24;29.27;96213.34;5072400;28;1008;-49
2022/03/22 12:17:29;;;;;;;;;;;;;;;14.31;29.40;96203.66;5073359;28;1011;-49
2022/03/22 12:19:59;;;;;;;;;;;;;;;14.42;29.25;96200.69;5072866;28;1087;-49
2022/03/22 12:22:26;;;;;;;;;;;;;;;14.39;29.27;96200.16;5073156;28;1071;-49
2022/03/22 12:24:52;;;;;;;;;;;;;;;14.35;28.49;96223.00;5072778;28;1015;-50
2022/03/22 12:27:18;;;;;;;;;;;;;;;13.81;28.35;96194.41;5073330;28;961;-49
2022/03/22 12:29:45;;;;;;;;;;;;;;;13.78;28.22;96196.53;5072662;28;2008;-49
2022/03/22 12:32:18;;;;;;;;;;;;;;;13.77;28.54;96184.09;5073087;28;1949;-48
2022/03/22 12:34:45;;;;;;;;;;;;;;;14.10;28.81;96185.19;5072884;28;972;-49
2022/03/22 12:37:12;;;;;;;;;;;;;;;14.26;28.28;96179.06;5072915;28;1040;-49
2022/03/22 12:39:41;;;;;;;;;;;;;;;14.27;28.44;96164.63;5072856;28;1032;-49
2022/03/22 12:42:08;;;;;;;;;;;;;;;14.22;28.63;96157.00;5072892;28;952;-49
2022/03/22 12:44:35;;;;;;;;;;;;;;;14.22;28.83;96150.78;5071453;28;1037;-49
2022/03/22 12:47:05;;;;;;;;;;;;;;;14.27;28.25;96156.56;5072855;28;1021;-50
2022/03/22 12:49:33;;;;;;;;;;;;;;;14.28;28.68;96125.09;5072477;28;1914;-49
2022/03/22 12:52:01;;;;;;;;;;;;;;;13.90;28.36;96140.69;5072600;28;1150;-49
2022/03/22 12:54:34;;;;;;;;;;;;;;;14.00;28.82;96136.91;5072742;28;1229;-49
2022/03/22 12:57:01;;;;;;;;;;;;;;;13.77;28.39;96136.56;5072742;28;1041;-49
2022/03/22 12:59:27;;;;;;;;;;;;;;;13.93;28.99;96129.63;5072781;28;1080;-49
2022/03/22 13:01:56;;;;;;;;;;;;;;;14.31;29.09;96132.88;5072646;28;1015;-49
2022/03/22 13:04:25;;;;;;;;;;;;;;;14.51;28.74;96123.53;5072738;28;1008;-49
2022/03/22 13:06:55;;;;;;;;;;;;;;;14.43;28.15;96116.25;5072763;28;952;-49
2022/03/22 13:12:14;;;;;;;;;;;;;;;14.48;27.61;96123.88;5072396;28;1036;-49
2022/03/22 13:17:29;;;;;;;;;;;;;;;14.49;27.56;96117.47;5072655;28;913;-49
2022/03/22 13:19:55;;;;;;;;;;;;;;;14.39;27.58;96122.13;5072527;28;968;-49
2022/03/22 13:22:22;;;;;;;;;;;;;;;14.24;27.80;96105.75;5072731;28;1121;-49
2022/03/22 13:24:48;;;;;;;;;;;;;;;14.23;27.61;96114.84;5072458;28;945;-49
2022/03/22 13:27:17;;;;;;;;;;;;;;;14.34;27.34;96105.63;5074225;28;980;-48
2022/03/22 13:29:44;;;;;;;;;;;;;;;14.23;27.86;96110.28;5075946;28;1914;-49
2022/03/22 13:32:11;;;;;;;;;;;;;;;14.30;27.29;96107.78;5074883;28;989;-49
2022/03/22 13:34:38;;;;;;;;;;;;;;;14.32;27.55;96099.56;5075021;28;1028;-49
2022/03/22 13:37:09;;;;;;;;;;;;;;;14.47;27.45;96094.41;5075715;28;1040;-49
2022/03/22 13:39:38;;;;;;;;;;;;;;;14.44;27.51;96107.19;5075944;28;1136;-49
2022/03/22 13:42:09;;;;;;;;;;;;;;;14.23;27.22;96104.09;5075323;28;1032;-49
2022/03/22 13:44:49;;;;;;;;;;;;;;;14.21;27.25;96098.84;5076044;28;1040;-49